JTR weather

Santorini Airport
Santorini Island, Cyclades, Greece

Public forecast

Using degrees Celsius for public forecast. Weather courtesy of forecast.io.

Current aviation weather report (METAR) for Santorini Airport

Retrieved 2020/02/27 11:20 UTC (14 minutes ago):

LGSR 271120Z 19008KT 9999 FEW025 20/08 Q1011

Aviation forecast (TAF) for Santorini Airport

Retrieved 2020/02/27 06:12 UTC (5 hours ago):

TAF LGSR 270500Z 2706/2806 23028G38KT 9999 SCT018 BECMG 2716/2718 27025KT BECMG 2718/2720 29025KT